createdAt,value
2023-03-28T00:00:46.289Z,-25
2023-03-28T00:01:51.596Z,-25
2023-03-28T00:02:56.881Z,-25
2023-03-28T00:04:02.167Z,-25
2023-03-28T00:05:08.483Z,-25
2023-03-28T00:06:14.723Z,-26
2023-03-28T00:07:20.987Z,-25
2023-03-28T00:08:27.258Z,-26
2023-03-28T00:09:33.527Z,-25
2023-03-28T00:10:39.807Z,-25
2023-03-28T00:11:46.067Z,-25
2023-03-28T00:12:52.346Z,-25
2023-03-28T00:13:58.619Z,-25
2023-03-28T00:15:04.881Z,-25
2023-03-28T00:16:11.163Z,-25
2023-03-28T00:17:17.441Z,-25
2023-03-28T00:18:22.724Z,-26
2023-03-28T00:19:29.021Z,-25
2023-03-28T00:20:35.279Z,-25
2023-03-28T00:21:41.537Z,-24
2023-03-28T00:22:47.810Z,-26
2023-03-28T00:23:54.098Z,-26
2023-03-28T00:25:00.356Z,-26
2023-03-28T00:26:05.665Z,-25
2023-03-28T00:27:10.951Z,-26
2023-03-28T00:28:16.248Z,-26
2023-03-28T00:29:21.549Z,-27
2023-03-28T00:30:27.812Z,-25
2023-03-28T00:31:34.083Z,-25
2023-03-28T00:32:40.348Z,-25
2023-03-28T00:33:46.630Z,-25
2023-03-28T00:34:52.923Z,-25
2023-03-28T00:35:59.172Z,-25
2023-03-28T00:37:05.443Z,-25
2023-03-28T00:38:11.713Z,-27
2023-03-28T00:39:18.010Z,-26
2023-03-28T00:40:24.265Z,-27
2023-03-28T00:41:30.538Z,-26
2023-03-28T00:42:36.825Z,-25
2023-03-28T00:43:42.104Z,-25
2023-03-28T00:44:48.383Z,-22
2023-03-28T00:45:54.644Z,-25
2023-03-28T00:47:00.922Z,-25
2023-03-28T00:48:07.240Z,-25
2023-03-28T00:49:13.461Z,-24
2023-03-28T00:50:19.726Z,-25
2023-03-28T00:51:25.037Z,-25
2023-03-28T00:52:31.296Z,-25
2023-03-28T00:53:36.596Z,-24
2023-03-28T00:54:41.892Z,-23
2023-03-28T00:55:47.176Z,-25
2023-03-28T00:56:53.455Z,-26
2023-03-28T00:57:59.742Z,-26
2023-03-28T00:59:06.001Z,-25
2023-03-28T01:00:12.302Z,-25
2023-03-28T01:01:18.549Z,-25
2023-03-28T01:02:24.837Z,-26
2023-03-28T01:03:31.081Z,-23
2023-03-28T01:04:37.356Z,-24
2023-03-28T01:05:43.635Z,-25
2023-03-28T01:06:49.901Z,-24
2023-03-28T01:07:56.168Z,-23
2023-03-28T01:09:02.514Z,-26
2023-03-28T01:10:07.746Z,-25
2023-03-28T01:11:14.039Z,-25
2023-03-28T01:12:20.276Z,-25
2023-03-28T01:13:26.549Z,-25
2023-03-28T01:14:32.822Z,-25
2023-03-28T01:15:39.098Z,-25
2023-03-28T01:16:45.364Z,-24
2023-03-28T01:17:50.675Z,-25
2023-03-28T01:18:55.950Z,-25
2023-03-28T01:20:01.255Z,-25
2023-03-28T01:21:06.543Z,-25
2023-03-28T01:22:12.816Z,-24
2023-03-28T01:23:19.091Z,-25
2023-03-28T01:24:25.357Z,-25
2023-03-28T01:25:31.631Z,-25
2023-03-28T01:26:37.905Z,-25
2023-03-28T01:27:44.172Z,-25
2023-03-28T01:28:50.444Z,-25
2023-03-28T01:29:56.742Z,-25
2023-03-28T01:31:02.992Z,-25
2023-03-28T01:32:09.266Z,-25
2023-03-28T01:33:15.535Z,-24
2023-03-28T01:34:21.808Z,-24
2023-03-28T01:35:27.098Z,-25
2023-03-28T01:36:33.371Z,-25
2023-03-28T01:37:39.642Z,-25
2023-03-28T01:38:45.915Z,-23
2023-03-28T01:39:52.187Z,-25
2023-03-28T01:40:58.461Z,-25
2023-03-28T01:42:04.784Z,-25
2023-03-28T01:43:10.049Z,-25
2023-03-28T01:44:15.341Z,-26
2023-03-28T01:45:20.625Z,-25
2023-03-28T01:46:25.911Z,-25
2023-03-28T01:47:32.197Z,-25
2023-03-28T01:48:37.462Z,-25
2023-03-28T01:49:43.749Z,-25
2023-03-28T01:50:50.011Z,-24
2023-03-28T01:51:56.282Z,-25
2023-03-28T01:53:02.563Z,-25
2023-03-28T01:54:08.858Z,-25
2023-03-28T01:55:15.182Z,-26
2023-03-28T01:56:21.576Z,-25
2023-03-28T01:57:27.681Z,-25
2023-03-28T01:58:33.964Z,-28
2023-03-28T01:59:40.206Z,-25
2023-03-28T02:00:46.478Z,-25
2023-03-28T02:01:52.832Z,-24
2023-03-28T02:02:58.038Z,-25
2023-03-28T02:04:04.315Z,-25
2023-03-28T02:05:10.579Z,-26
2023-03-28T02:06:16.897Z,-25
2023-03-28T02:07:23.116Z,-25
2023-03-28T02:08:28.417Z,-24
2023-03-28T02:09:33.771Z,-24
2023-03-28T02:10:39.984Z,-25
2023-03-28T02:11:45.284Z,-22
2023-03-28T02:12:50.591Z,-25
2023-03-28T02:13:56.846Z,-26
2023-03-28T02:15:03.127Z,-25
2023-03-28T02:16:09.392Z,-25
2023-03-28T02:17:15.700Z,-25
2023-03-28T02:18:21.938Z,-26
2023-03-28T02:19:28.215Z,-25
2023-03-28T02:20:34.483Z,-26
2023-03-28T02:21:40.758Z,-25
2023-03-28T02:22:47.036Z,-24
2023-03-28T02:23:53.303Z,-25
2023-03-28T02:24:59.598Z,-25
2023-03-28T02:26:05.852Z,-24
2023-03-28T02:27:11.139Z,-24
2023-03-28T02:28:17.405Z,-25
2023-03-28T02:29:23.683Z,-25
2023-03-28T02:30:29.953Z,-25
2023-03-28T02:31:36.225Z,-26
2023-03-28T02:32:42.514Z,-25
2023-03-28T02:33:48.776Z,-24
2023-03-28T02:34:54.074Z,-27
2023-03-28T02:35:59.368Z,-25
2023-03-28T02:37:05.642Z,-23
2023-03-28T02:38:11.907Z,-25
2023-03-28T02:39:17.211Z,-25
2023-03-28T02:40:22.497Z,-25
2023-03-28T02:41:28.764Z,-25
2023-03-28T02:42:35.041Z,-24
2023-03-28T02:43:41.316Z,-25
2023-03-28T02:44:47.583Z,-25
2023-03-28T02:45:53.856Z,-25
2023-03-28T02:47:00.137Z,-28
2023-03-28T02:48:06.404Z,-25
2023-03-28T02:49:12.684Z,-25
2023-03-28T02:50:18.946Z,-24
2023-03-28T02:51:25.224Z,-24
2023-03-28T02:52:31.499Z,-26
2023-03-28T02:53:37.762Z,-25
2023-03-28T02:54:44.042Z,-25
2023-03-28T02:55:49.366Z,-25
2023-03-28T02:56:55.604Z,-25
2023-03-28T02:58:01.877Z,-26
2023-03-28T02:59:08.146Z,-25
2023-03-28T03:00:14.415Z,-25
2023-03-28T03:01:20.695Z,-24
2023-03-28T03:02:26.966Z,-25
2023-03-28T03:03:33.232Z,-24
2023-03-28T03:04:38.544Z,-25
2023-03-28T03:05:43.816Z,-24
2023-03-28T03:06:49.120Z,-25
2023-03-28T03:07:54.421Z,-25
2023-03-28T03:09:00.691Z,-24
2023-03-28T03:10:06.958Z,-23
2023-03-28T03:11:13.245Z,-23
2023-03-28T03:12:19.503Z,-24
2023-03-28T03:13:25.772Z,-23
2023-03-28T03:14:32.048Z,-22
2023-03-28T03:15:38.319Z,-25
2023-03-28T03:16:44.591Z,-24
2023-03-28T03:17:50.866Z,-26
2023-03-28T03:18:57.134Z,-24
2023-03-28T03:20:03.422Z,-23
2023-03-28T03:21:09.692Z,-24
2023-03-28T03:22:15.966Z,-24
2023-03-28T03:23:21.238Z,-24
2023-03-28T03:24:27.510Z,-24
2023-03-28T03:25:33.782Z,-23
2023-03-28T03:26:40.066Z,-24
2023-03-28T03:27:46.328Z,-24
2023-03-28T03:28:52.649Z,-24
2023-03-28T03:29:57.940Z,-24
2023-03-28T03:31:03.192Z,-23
2023-03-28T03:32:09.457Z,-24
2023-03-28T03:33:14.763Z,-26
2023-03-28T03:34:21.042Z,-25
2023-03-28T03:35:26.332Z,-25
2023-03-28T03:36:32.608Z,-24
2023-03-28T03:37:38.948Z,-25
2023-03-28T03:38:45.134Z,-25
2023-03-28T03:39:51.410Z,-24
2023-03-28T03:40:57.730Z,-25
2023-03-28T03:42:04.008Z,-25
2023-03-28T03:43:10.233Z,-25
2023-03-28T03:44:16.503Z,-25
2023-03-28T03:45:22.775Z,-25
2023-03-28T03:46:29.041Z,-24
2023-03-28T03:47:35.317Z,-24
2023-03-28T03:48:41.592Z,-25
2023-03-28T03:49:46.893Z,-25
2023-03-28T03:50:53.149Z,-25
2023-03-28T03:51:59.434Z,-25
2023-03-28T03:53:05.716Z,-25
2023-03-28T03:54:11.995Z,-25
2023-03-28T03:55:18.259Z,-25
2023-03-28T03:56:23.539Z,-25
2023-03-28T03:57:29.820Z,-21
2023-03-28T03:58:36.091Z,-26
2023-03-28T03:59:42.352Z,-25
2023-03-28T04:00:47.666Z,-25
2023-03-28T04:01:53.039Z,-25
2023-03-28T04:02:59.260Z,-25
2023-03-28T04:04:05.496Z,-25
2023-03-28T04:05:11.806Z,-24
2023-03-28T04:06:18.078Z,-25
2023-03-28T04:07:24.329Z,-25
2023-03-28T04:08:30.573Z,-21
2023-03-28T04:09:36.937Z,-25
2023-03-28T04:10:43.125Z,-24
2023-03-28T04:11:49.400Z,-21
2023-03-28T04:12:55.680Z,-25
2023-03-28T04:14:02.030Z,-24
2023-03-28T04:15:08.227Z,-25
2023-03-28T04:16:14.488Z,-25
2023-03-28T04:17:20.774Z,-24
2023-03-28T04:18:26.051Z,-25
2023-03-28T04:19:32.490Z,-23
2023-03-28T04:20:38.605Z,-27
2023-03-28T04:21:44.875Z,-23
2023-03-28T04:22:51.137Z,-24
2023-03-28T04:23:56.440Z,-24
2023-03-28T04:25:01.793Z,-24
2023-03-28T04:26:08.026Z,-25
2023-03-28T04:27:14.273Z,-23
2023-03-28T04:28:19.605Z,-25
2023-03-28T04:29:25.898Z,-23
2023-03-28T04:30:31.151Z,-25
2023-03-28T04:31:37.419Z,-24
2023-03-28T04:32:43.676Z,-24
2023-03-28T04:33:49.987Z,-25
2023-03-28T04:34:56.237Z,-25
2023-03-28T04:36:02.581Z,-24
2023-03-28T04:37:08.763Z,-25
2023-03-28T04:38:15.043Z,-22
2023-03-28T04:39:21.318Z,-22
2023-03-28T04:40:27.590Z,-25
2023-03-28T04:41:33.867Z,-25
2023-03-28T04:42:40.133Z,-23
2023-03-28T04:43:46.410Z,-23
2023-03-28T04:44:51.724Z,-24
2023-03-28T04:45:57.965Z,-24
2023-03-28T04:47:04.238Z,-25
2023-03-28T04:48:10.524Z,-24
2023-03-28T04:49:16.789Z,-23
2023-03-28T04:50:23.062Z,-23
2023-03-28T04:51:28.382Z,-25
2023-03-28T04:52:33.652Z,-24
2023-03-28T04:53:39.926Z,-23
2023-03-28T04:54:46.188Z,-23
2023-03-28T04:55:52.465Z,-25
2023-03-28T04:56:58.765Z,-25
2023-03-28T04:58:05.006Z,-25
2023-03-28T04:59:11.287Z,-25
2023-03-28T05:00:17.555Z,-25
2023-03-28T05:01:23.827Z,-24
2023-03-28T05:02:30.094Z,-25
2023-03-28T05:03:36.375Z,-22
2023-03-28T05:04:42.641Z,-25
2023-03-28T05:05:48.922Z,-23
2023-03-28T05:06:55.198Z,-24
2023-03-28T05:08:01.487Z,-24
2023-03-28T05:09:06.748Z,-25
2023-03-28T05:10:13.019Z,-23
2023-03-28T05:11:19.314Z,-24
2023-03-28T05:12:25.575Z,-24
2023-03-28T05:13:31.948Z,-25
2023-03-28T05:14:38.114Z,-24
2023-03-28T05:15:43.406Z,-24
2023-03-28T05:16:48.704Z,-25
2023-03-28T05:17:54.009Z,-25
2023-03-28T05:18:59.290Z,-24
2023-03-28T05:20:04.587Z,-25
2023-03-28T05:21:09.884Z,-25
2023-03-28T05:22:16.144Z,-25
2023-03-28T05:23:22.432Z,-24
2023-03-28T05:24:28.694Z,-25
2023-03-28T05:25:33.976Z,-25
2023-03-28T05:26:40.260Z,-25
2023-03-28T05:27:45.545Z,-25
2023-03-28T05:28:51.824Z,-25
2023-03-28T05:29:57.111Z,-25
2023-03-28T05:31:03.388Z,-26
2023-03-28T05:32:09.666Z,-25
2023-03-28T05:33:15.937Z,-24
2023-03-28T05:34:22.202Z,-24
2023-03-28T05:35:28.476Z,-25
2023-03-28T05:36:34.748Z,-24
2023-03-28T05:37:41.028Z,-25
2023-03-28T05:38:47.301Z,-25
2023-03-28T05:39:53.569Z,-25
2023-03-28T05:40:59.847Z,-25
2023-03-28T05:42:06.116Z,-25
2023-03-28T05:43:12.394Z,-26
2023-03-28T05:44:17.667Z,-25
2023-03-28T05:45:23.953Z,-24
2023-03-28T05:46:30.223Z,-25
2023-03-28T05:47:36.495Z,-25
2023-03-28T05:48:41.815Z,-24
2023-03-28T05:49:48.082Z,-25
2023-03-28T05:50:54.331Z,-27
2023-03-28T05:52:00.605Z,-25
2023-03-28T05:53:05.912Z,-25
2023-03-28T05:54:12.185Z,-24
2023-03-28T05:55:17.465Z,-25
2023-03-28T05:56:23.744Z,-26
2023-03-28T05:57:30.019Z,-25
2023-03-28T05:58:36.291Z,-25
2023-03-28T05:59:42.561Z,-23
2023-03-28T06:00:48.849Z,-24
2023-03-28T06:01:55.192Z,-25
2023-03-28T06:03:01.374Z,-24
2023-03-28T06:04:07.656Z,-22
2023-03-28T06:05:13.922Z,-23
2023-03-28T06:06:20.245Z,-23
2023-03-28T06:07:26.457Z,-23
2023-03-28T06:08:32.764Z,-23
2023-03-28T06:09:38.033Z,-24
2023-03-28T06:10:44.298Z,-24
2023-03-28T06:11:50.580Z,-24
2023-03-28T06:12:56.856Z,-24
2023-03-28T06:14:03.245Z,-23
2023-03-28T06:15:09.379Z,-25
2023-03-28T06:16:15.735Z,-24
2023-03-28T06:17:22.011Z,-24
2023-03-28T06:18:28.214Z,-24
2023-03-28T06:19:34.475Z,-23
2023-03-28T06:20:40.785Z,-22
2023-03-28T06:21:46.048Z,-25
2023-03-28T06:22:51.411Z,-22
2023-03-28T06:23:56.646Z,-23
2023-03-28T06:25:01.932Z,-22
2023-03-28T06:26:08.236Z,-23
2023-03-28T06:27:14.481Z,-22
2023-03-28T06:28:20.803Z,-22
2023-03-28T06:29:27.029Z,-24
2023-03-28T06:30:33.341Z,-24
2023-03-28T06:31:39.586Z,-21
2023-03-28T06:32:45.867Z,-22
2023-03-28T06:33:52.110Z,-22
2023-03-28T06:34:58.376Z,-23
2023-03-28T06:36:04.650Z,-25
2023-03-28T06:37:10.931Z,-24
2023-03-28T06:38:17.194Z,-23
2023-03-28T06:39:22.477Z,-23
2023-03-28T06:40:28.763Z,-23
2023-03-28T06:41:35.031Z,-24
2023-03-28T06:42:41.301Z,-22
2023-03-28T06:43:47.604Z,-23
2023-03-28T06:44:53.916Z,-23
2023-03-28T06:46:00.110Z,-22
2023-03-28T06:47:06.457Z,-22
2023-03-28T06:48:11.689Z,-23
2023-03-28T06:49:16.999Z,-22
2023-03-28T06:50:23.252Z,-23
2023-03-28T06:51:28.559Z,-22
2023-03-28T06:52:33.843Z,-23
2023-03-28T06:53:40.116Z,-24
2023-03-28T06:54:46.388Z,-22
2023-03-28T06:55:52.653Z,-23
2023-03-28T06:56:58.928Z,-22
2023-03-28T06:58:05.201Z,-23
2023-03-28T06:59:11.476Z,-21
2023-03-28T07:00:17.756Z,-23
2023-03-28T07:01:24.029Z,-21
2023-03-28T07:02:30.299Z,-21
2023-03-28T07:03:36.573Z,-23
2023-03-28T07:04:42.889Z,-21
2023-03-28T07:05:49.174Z,-22
2023-03-28T07:06:55.415Z,-21
2023-03-28T07:08:01.647Z,-23
2023-03-28T07:09:06.941Z,-21
2023-03-28T07:10:13.216Z,-22
2023-03-28T07:11:19.492Z,-22
2023-03-28T07:12:25.764Z,-24
2023-03-28T07:13:32.039Z,-22
2023-03-28T07:14:37.327Z,-22
2023-03-28T07:15:42.623Z,-21
2023-03-28T07:16:47.956Z,-21
2023-03-28T07:17:53.211Z,-21
2023-03-28T07:18:59.486Z,-22
2023-03-28T07:20:05.755Z,-23
2023-03-28T07:21:12.024Z,-21
2023-03-28T07:22:18.298Z,-21
2023-03-28T07:23:24.575Z,-21
2023-03-28T07:24:30.854Z,-21
2023-03-28T07:25:37.136Z,-22
2023-03-28T07:26:43.396Z,-21
2023-03-28T07:27:49.666Z,-21
2023-03-28T07:28:55.935Z,-23
2023-03-28T07:30:02.199Z,-21
2023-03-28T07:31:08.475Z,-21
2023-03-28T07:32:13.836Z,-21
2023-03-28T07:33:20.088Z,-20
2023-03-28T07:34:26.308Z,-20
2023-03-28T07:35:32.687Z,-20
2023-03-28T07:36:38.895Z,-21
2023-03-28T07:37:45.129Z,-19
2023-03-28T07:38:51.413Z,-20
2023-03-28T07:39:56.738Z,-20
2023-03-28T07:41:01.991Z,-20
2023-03-28T07:42:07.284Z,-21
2023-03-28T07:43:12.574Z,-23
2023-03-28T07:44:18.843Z,-19
2023-03-28T07:45:25.122Z,-20
2023-03-28T07:46:31.407Z,-21
2023-03-28T07:47:37.661Z,-22
2023-03-28T07:48:43.945Z,-20
2023-03-28T07:49:50.210Z,-21
2023-03-28T07:50:56.522Z,-21
2023-03-28T07:52:02.756Z,-20
2023-03-28T07:53:09.031Z,-20
2023-03-28T07:54:15.325Z,-21
2023-03-28T07:55:21.585Z,-19
2023-03-28T07:56:27.843Z,-19
2023-03-28T07:57:33.130Z,-19
2023-03-28T07:58:39.432Z,-19
2023-03-28T07:59:45.669Z,-20
2023-03-28T08:00:51.973Z,-20
2023-03-28T08:01:58.303Z,-20
2023-03-28T08:03:04.614Z,-20
2023-03-28T08:04:10.895Z,-19
2023-03-28T08:05:17.047Z,-19
2023-03-28T08:06:22.352Z,-20
2023-03-28T08:07:27.628Z,-19
2023-03-28T08:08:32.950Z,-20
2023-03-28T08:09:38.245Z,-19
2023-03-28T08:10:44.470Z,-19
2023-03-28T08:11:50.746Z,-18
2023-03-28T08:12:57.030Z,-19
2023-03-28T08:14:03.332Z,-18
2023-03-28T08:15:09.571Z,-19
2023-03-28T08:16:15.841Z,-18
2023-03-28T08:17:22.188Z,-18
2023-03-28T08:18:28.459Z,-16
2023-03-28T08:19:34.716Z,-18
2023-03-28T08:20:40.933Z,-18
2023-03-28T08:21:47.198Z,-18
2023-03-28T08:22:53.469Z,-19
2023-03-28T08:23:58.763Z,-19
2023-03-28T08:25:05.032Z,-19
2023-03-28T08:26:11.298Z,-20
2023-03-28T08:27:17.577Z,-21
2023-03-28T08:28:23.849Z,-21
2023-03-28T08:29:30.122Z,-18
2023-03-28T08:30:36.412Z,-20
2023-03-28T08:31:41.692Z,-19
2023-03-28T08:32:47.002Z,-18
2023-03-28T08:33:53.249Z,-18
2023-03-28T08:34:59.520Z,-19
2023-03-28T08:36:05.836Z,-19
2023-03-28T08:37:12.129Z,-18
2023-03-28T08:38:18.342Z,-19
2023-03-28T08:39:24.624Z,-18
2023-03-28T08:40:30.880Z,-19
2023-03-28T08:41:37.164Z,-18
2023-03-28T08:42:43.435Z,-18
2023-03-28T08:43:49.782Z,-18
2023-03-28T08:44:55.980Z,-18
2023-03-28T08:46:02.364Z,-19
2023-03-28T08:47:07.544Z,-18
2023-03-28T08:48:13.828Z,-18
2023-03-28T08:49:20.080Z,-19
2023-03-28T08:50:26.349Z,-18
2023-03-28T08:51:32.676Z,-18
2023-03-28T08:52:38.894Z,-20
2023-03-28T08:53:45.182Z,-21
2023-03-28T08:54:50.469Z,-21
2023-03-28T08:55:55.767Z,-18
2023-03-28T08:57:02.043Z,-18
2023-03-28T08:58:08.309Z,-19
2023-03-28T08:59:14.590Z,-19
2023-03-28T09:00:20.842Z,-19
2023-03-28T09:01:27.116Z,-19
2023-03-28T09:02:33.391Z,-18
2023-03-28T09:03:39.662Z,-18
2023-03-28T09:04:45.942Z,-18
2023-03-28T09:05:52.218Z,-18
2023-03-28T09:06:58.476Z,-18
2023-03-28T09:08:04.775Z,-18
2023-03-28T09:09:11.074Z,-19
2023-03-28T09:10:17.295Z,-20
2023-03-28T09:11:22.582Z,-19
2023-03-28T09:12:28.870Z,-18
2023-03-28T09:13:35.154Z,-18
2023-03-28T09:14:41.423Z,-18
2023-03-28T09:15:47.672Z,-18
2023-03-28T09:16:54.048Z,-19
2023-03-28T09:17:59.245Z,-20
2023-03-28T09:19:04.528Z,-19
2023-03-28T09:20:09.848Z,-18
2023-03-28T09:21:15.126Z,-18
2023-03-28T09:22:21.397Z,-18
2023-03-28T09:23:26.690Z,-19
2023-03-28T09:24:32.965Z,-18
2023-03-28T09:25:38.265Z,-18
2023-03-28T09:26:43.546Z,-19
2023-03-28T09:27:49.902Z,-18
2023-03-28T09:28:56.093Z,-21
2023-03-28T09:30:02.361Z,-18
2023-03-28T09:31:08.727Z,-16
2023-03-28T09:32:14.912Z,-18
2023-03-28T09:33:21.182Z,-18
2023-03-28T09:34:27.464Z,-18
2023-03-28T09:35:33.725Z,-16
2023-03-28T09:36:40.022Z,-17
2023-03-28T09:37:46.289Z,-17
2023-03-28T09:38:52.565Z,-17
2023-03-28T09:39:58.811Z,-17
2023-03-28T09:41:04.097Z,-18
2023-03-28T09:42:10.399Z,-18
2023-03-28T09:43:16.649Z,-18
2023-03-28T09:44:22.936Z,-18
2023-03-28T09:45:29.190Z,-17
2023-03-28T09:46:35.466Z,-17
2023-03-28T09:47:41.729Z,-18
2023-03-28T09:48:48.004Z,-18
2023-03-28T09:49:53.307Z,-17
2023-03-28T09:50:58.694Z,-17
2023-03-28T09:52:03.891Z,-17
2023-03-28T09:53:09.181Z,-18
2023-03-28T09:54:15.462Z,-18
2023-03-28T09:55:21.742Z,-17
2023-03-28T09:56:27.985Z,-18
2023-03-28T09:57:34.265Z,-15
2023-03-28T09:58:40.550Z,-17
2023-03-28T09:59:46.841Z,-16
2023-03-28T10:00:53.082Z,-18
2023-03-28T10:01:59.413Z,-16
2023-03-28T10:03:05.649Z,-17
2023-03-28T10:04:11.900Z,-17
2023-03-28T10:05:18.174Z,-16
2023-03-28T10:06:24.450Z,-16
2023-03-28T10:07:29.744Z,-18
2023-03-28T10:08:36.004Z,-17
2023-03-28T10:09:42.303Z,-17
2023-03-28T10:10:48.556Z,-15
2023-03-28T10:11:54.823Z,-14
2023-03-28T10:13:01.103Z,-15
2023-03-28T10:14:07.372Z,-12
2023-03-28T10:15:12.696Z,-12
2023-03-28T10:16:17.950Z,-12
2023-03-28T10:17:23.271Z,-14
2023-03-28T10:18:28.539Z,-13
2023-03-28T10:19:34.809Z,-14
2023-03-28T10:20:41.087Z,-15
2023-03-28T10:21:47.376Z,-15
2023-03-28T10:22:53.677Z,-13
2023-03-28T10:23:59.933Z,-12
2023-03-28T10:25:06.172Z,-14
2023-03-28T10:26:12.449Z,-13
2023-03-28T10:27:18.777Z,-14
2023-03-28T10:28:24.994Z,-15
2023-03-28T10:29:31.257Z,-13
2023-03-28T10:30:37.522Z,-15
2023-03-28T10:31:43.869Z,-15
2023-03-28T10:32:49.123Z,-13
2023-03-28T10:33:55.377Z,-15
2023-03-28T10:35:01.674Z,-15
2023-03-28T10:36:07.931Z,-14
2023-03-28T10:37:14.178Z,-13
2023-03-28T10:38:20.447Z,-12
2023-03-28T10:39:26.732Z,-12
2023-03-28T10:40:32.033Z,-12
2023-03-28T10:41:37.302Z,-12
2023-03-28T10:42:43.599Z,-13
2023-03-28T10:43:48.952Z,-12
2023-03-28T10:44:54.193Z,-14
2023-03-28T10:46:00.454Z,-14
2023-03-28T10:47:06.714Z,-14
2023-03-28T10:48:12.983Z,-14
2023-03-28T10:49:19.284Z,-13
2023-03-28T10:50:25.532Z,-13
2023-03-28T10:51:31.875Z,-13
2023-03-28T10:52:38.068Z,-12
2023-03-28T10:53:44.340Z,-11
2023-03-28T10:54:50.623Z,-12
2023-03-28T10:55:56.910Z,-12
2023-03-28T10:57:03.188Z,-11
2023-03-28T10:58:09.432Z,-11
2023-03-28T10:59:14.721Z,-11
2023-03-28T11:00:21.018Z,-12
2023-03-28T11:01:27.264Z,-12
2023-03-28T11:02:33.562Z,-13
2023-03-28T11:03:39.874Z,-12
2023-03-28T11:04:46.106Z,-12
2023-03-28T11:05:52.348Z,-13
2023-03-28T11:06:58.621Z,-12
2023-03-28T11:08:04.888Z,-12
2023-03-28T11:09:11.171Z,-12
2023-03-28T11:10:17.434Z,-12
2023-03-28T11:11:23.858Z,-12
2023-03-28T11:12:30.012Z,-14
2023-03-28T11:13:35.298Z,-13
2023-03-28T11:14:41.583Z,-14
2023-03-28T11:15:47.804Z,-14
2023-03-28T11:16:54.093Z,-13
2023-03-28T11:18:00.359Z,-13
2023-03-28T11:19:06.768Z,-13
2023-03-28T11:20:11.920Z,-12
2023-03-28T11:21:17.221Z,-13
2023-03-28T11:22:22.555Z,-13
2023-03-28T11:23:27.822Z,-14
2023-03-28T11:24:34.160Z,-13
2023-03-28T11:25:40.334Z,-13
2023-03-28T11:26:46.605Z,-12
2023-03-28T11:27:52.904Z,-13
2023-03-28T11:28:59.155Z,-14
2023-03-28T11:30:05.581Z,-16
2023-03-28T11:31:11.713Z,-14
2023-03-28T11:32:17.968Z,-15
2023-03-28T11:33:24.238Z,-14
2023-03-28T11:34:30.515Z,-14
2023-03-28T11:35:36.770Z,-13
2023-03-28T11:36:43.053Z,-12
2023-03-28T11:37:49.321Z,-13
2023-03-28T11:38:55.620Z,-12
2023-03-28T11:40:00.905Z,-12
2023-03-28T11:41:07.175Z,-12
2023-03-28T11:42:13.430Z,-12
2023-03-28T11:43:19.713Z,-12
2023-03-28T11:44:25.977Z,-11
2023-03-28T11:45:31.273Z,-12
2023-03-28T11:46:36.576Z,-12
2023-03-28T11:47:42.876Z,-12
2023-03-28T11:48:49.120Z,-12
2023-03-28T11:49:55.372Z,-12
2023-03-28T11:51:01.650Z,-11
2023-03-28T11:52:08.096Z,-11
2023-03-28T11:53:14.181Z,-11
2023-03-28T11:54:20.498Z,-11
2023-03-28T11:55:26.727Z,-12
2023-03-28T11:56:33.018Z,-11
2023-03-28T11:57:39.340Z,-12
2023-03-28T11:58:45.543Z,-12
2023-03-28T11:59:51.858Z,-12
2023-03-28T12:00:57.097Z,-12
2023-03-28T12:02:03.379Z,-12
2023-03-28T12:03:09.644Z,-12
2023-03-28T12:04:15.915Z,-11
2023-03-28T12:05:22.204Z,-12
2023-03-28T12:06:28.468Z,-10
2023-03-28T12:07:34.742Z,-11
2023-03-28T12:08:40.075Z,-10
2023-03-28T12:09:45.310Z,-10
2023-03-28T12:10:50.632Z,-9
2023-03-28T12:11:55.906Z,-10
2023-03-28T12:13:02.195Z,-11
2023-03-28T12:14:07.486Z,-9
2023-03-28T12:15:12.793Z,-9
2023-03-28T12:16:19.028Z,-9
2023-03-28T12:17:25.335Z,-9
2023-03-28T12:18:31.587Z,-9
2023-03-28T12:19:37.843Z,-9
2023-03-28T12:20:44.130Z,-11
2023-03-28T12:21:50.387Z,-10
2023-03-28T12:22:56.698Z,-9
2023-03-28T12:24:02.954Z,-9
2023-03-28T12:25:09.213Z,-9
2023-03-28T12:26:15.506Z,-9
2023-03-28T12:27:21.787Z,-10
2023-03-28T12:28:28.039Z,-12
2023-03-28T12:29:33.318Z,-10
2023-03-28T12:30:39.737Z,-10
2023-03-28T12:31:45.853Z,-12
2023-03-28T12:32:52.130Z,-11
2023-03-28T12:33:58.401Z,-12
2023-03-28T12:35:04.685Z,-11
2023-03-28T12:36:10.947Z,-10
2023-03-28T12:37:16.262Z,-9
2023-03-28T12:38:21.536Z,-8
2023-03-28T12:39:27.845Z,-9
2023-03-28T12:40:33.111Z,-9
2023-03-28T12:41:38.383Z,-8
2023-03-28T12:42:44.664Z,-7
2023-03-28T12:43:50.947Z,-7
2023-03-28T12:44:57.194Z,-8
2023-03-28T12:46:03.466Z,-8
2023-03-28T12:47:09.748Z,-8
2023-03-28T12:48:16.016Z,-11
2023-03-28T12:49:22.286Z,-9
2023-03-28T12:50:28.587Z,-9
2023-03-28T12:51:34.834Z,-9
2023-03-28T12:52:40.126Z,-9
2023-03-28T12:53:46.401Z,-9
2023-03-28T12:54:52.671Z,-9
2023-03-28T12:55:58.944Z,-9
2023-03-28T12:57:05.237Z,-8
2023-03-28T12:58:11.481Z,-9
2023-03-28T12:59:17.763Z,-9
2023-03-28T13:00:24.047Z,-9
2023-03-28T13:01:30.315Z,-8
2023-03-28T13:02:36.565Z,-9
2023-03-28T13:03:41.867Z,-10
2023-03-28T13:04:47.150Z,-10
2023-03-28T13:05:53.425Z,-10
2023-03-28T13:06:59.701Z,-8
2023-03-28T13:08:05.022Z,-10
2023-03-28T13:09:10.325Z,-8
2023-03-28T13:10:16.558Z,-9
2023-03-28T13:11:22.830Z,-10
2023-03-28T13:12:29.131Z,-10
2023-03-28T13:13:35.368Z,-10
2023-03-28T13:14:41.662Z,-9
2023-03-28T13:15:47.905Z,-9
2023-03-28T13:16:54.189Z,-10
2023-03-28T13:18:00.464Z,-9
2023-03-28T13:19:06.727Z,-9
2023-03-28T13:20:13.019Z,-9
2023-03-28T13:21:19.292Z,-8
2023-03-28T13:22:25.564Z,-9
2023-03-28T13:23:30.836Z,-9
2023-03-28T13:24:37.131Z,-9
2023-03-28T13:25:43.374Z,-9
2023-03-28T13:26:49.652Z,-9
2023-03-28T13:27:55.916Z,-9
2023-03-28T13:29:02.196Z,-10
2023-03-28T13:30:08.471Z,-9
2023-03-28T13:31:13.794Z,-9
2023-03-28T13:32:19.052Z,-7
2023-03-28T13:33:24.401Z,-8
2023-03-28T13:34:29.644Z,-4
2023-03-28T13:35:35.908Z,-4
2023-03-28T13:36:42.176Z,-5
2023-03-28T13:37:48.453Z,-6
2023-03-28T13:38:54.755Z,-4
2023-03-28T13:40:00.988Z,-5
2023-03-28T13:41:07.271Z,-5
2023-03-28T13:42:13.532Z,-4
2023-03-28T13:43:19.811Z,-6
2023-03-28T13:44:26.082Z,-6
2023-03-28T13:45:32.353Z,-6
2023-03-28T13:46:38.624Z,-5
2023-03-28T13:47:44.946Z,-5
2023-03-28T13:48:50.262Z,-5
2023-03-28T13:49:56.449Z,-5
2023-03-28T13:51:02.716Z,-5
2023-03-28T13:52:09.001Z,-6
2023-03-28T13:53:15.269Z,-6
2023-03-28T13:54:21.537Z,-6
2023-03-28T13:55:27.872Z,-6
2023-03-28T13:56:33.111Z,-8
2023-03-28T13:57:38.426Z,-10
2023-03-28T13:58:44.658Z,-10
2023-03-28T13:59:49.963Z,-10
2023-03-28T14:00:55.276Z,-11
2023-03-28T14:02:01.528Z,-9
2023-03-28T14:03:07.799Z,-10
2023-03-28T14:04:14.069Z,-12
2023-03-28T14:05:20.366Z,-11
2023-03-28T14:06:26.611Z,-11
2023-03-28T14:07:32.890Z,-9
2023-03-28T14:08:39.149Z,-11
2023-03-28T14:09:45.441Z,-12
2023-03-28T14:10:51.690Z,-12
2023-03-28T14:11:58.147Z,-12
2023-03-28T14:13:04.240Z,-12
2023-03-28T14:14:10.515Z,-11
2023-03-28T14:15:15.829Z,-10
2023-03-28T14:16:22.070Z,-12
2023-03-28T14:17:28.345Z,-13
2023-03-28T14:18:34.652Z,-11
2023-03-28T14:19:40.888Z,-11
2023-03-28T14:20:47.151Z,-11
2023-03-28T14:21:53.430Z,-11
2023-03-28T14:22:59.708Z,-12
2023-03-28T14:24:04.996Z,-11
2023-03-28T14:25:11.274Z,-11
2023-03-28T14:26:16.573Z,-12
2023-03-28T14:27:22.910Z,-11
2023-03-28T14:28:29.118Z,-12
2023-03-28T14:29:34.423Z,-12
2023-03-28T14:30:39.696Z,-12
2023-03-28T14:31:45.988Z,-12
2023-03-28T14:32:52.240Z,-12
2023-03-28T14:33:58.506Z,-12
2023-03-28T14:35:04.780Z,-12
2023-03-28T14:36:11.067Z,-12
2023-03-28T14:37:17.312Z,-12
2023-03-28T14:38:23.600Z,-13
2023-03-28T14:39:29.885Z,-13
2023-03-28T14:40:36.173Z,-11
2023-03-28T14:41:42.409Z,-13
2023-03-28T14:42:48.685Z,-12
2023-03-28T14:43:54.974Z,-12
2023-03-28T14:45:00.248Z,-13
2023-03-28T14:46:06.518Z,-12
2023-03-28T14:47:12.788Z,-12
2023-03-28T14:48:19.057Z,-14
2023-03-28T14:49:25.321Z,-14
2023-03-28T14:50:31.604Z,-14
2023-03-28T14:51:37.904Z,-12
2023-03-28T14:52:43.191Z,-14
2023-03-28T14:53:48.460Z,-13
2023-03-28T14:54:54.752Z,-14
2023-03-28T14:56:01.007Z,-14
2023-03-28T14:57:06.319Z,-14
2023-03-28T14:58:12.581Z,-15
2023-03-28T15:00:25.116Z,-14
2023-03-28T15:01:30.403Z,-15
2023-03-28T15:02:36.674Z,-14
2023-03-28T15:03:42.976Z,-14
2023-03-28T15:04:49.218Z,-11
2023-03-28T15:05:55.486Z,-15
2023-03-28T15:07:01.812Z,-13
2023-03-28T15:08:08.042Z,-15
2023-03-28T15:09:14.337Z,-15
2023-03-28T15:10:20.600Z,-14
2023-03-28T15:11:26.851Z,-14
2023-03-28T15:12:33.116Z,-15
2023-03-28T15:13:39.393Z,-15